KERO2: Robert S. Kerr Lock & Dam & Reservoir (L&D 15)

Data processed at Thu Mar 08 2018 23:21


All information presented herein is the property of the government of the United States of America and may be revised or deleted at any time without prior notice.
Dissemination of this information without the expressed written consent of the Public Affairs Office, Tulsa District U.S. Army Corps of Engineers is strictly prohibited.
These data are gathered electronically and, as presented, have not undergone any form of quality control. These data are not guaranteed to be valid or correct.
Go to home page.
Go to station list.

Upstream stations:

Downstream station:
Previous Day
Next Day
Current Day
    
SHEF ID:       KERO2     Robert S. Kerr Lock & Dam
STATION TYPE:  NAVIGATION LOCK
Normal Pool:  Bottom =   458.00, Top =   460.00

               PRECIP ELEVATION   STORAGE   TW-ELEV    INFLOW   RELEASE  AIR-TEMP  WIND-DIRWIND-SPEED REL-HUMID SOLAR-RAD   VOLTAGE  BAT-LOAD
                   in        ft     ac-ft        ft       cfs       cfs         F       deg       mph         %      W/m2      volt      volt
              Ccp-Rev   Ccp-Rev   Ccp-Rev   Ccp-Rev  Regi-Rev  Regi-Rev   Ccp-Rev   Ccp-Rev   Ccp-Rev   Ccp-Rev   Ccp-Rev   Ccp-Rev   Ccp-Rev
(US/Central)
03/06 00:00      0.00    459.49    503709    417.58     62360     67000     46.74    236.30      1.71     72.37      0.00     13.81     13.48
03/06 01:00      0.00    459.46    502416    416.57     57954     55400     41.02      6.10      0.28     84.65      0.00     13.81     13.36
03/06 02:00      0.00    459.45    501985    416.36     60849     55400     38.07     31.40      0.29     83.80      0.00     13.83     13.30
03/06 03:00      0.00    459.44    501554    416.25     52271     55400     41.13    251.30      2.55     73.53      0.00     13.80     13.48
03/06 04:00      0.00    459.46    502416    416.19     55400     55400     43.45    234.60      2.10     75.13      0.00     13.81     13.36
03/06 05:00      0.00    459.46    502416    416.13     52271     55400     41.79    255.10      4.21     71.70      0.00     13.81     13.36
03/06 06:00      0.00    459.46    502416    416.08     55400     55400     42.46    258.30      5.35     70.85      0.00     13.83     13.36
03/06 07:00      0.00    459.42    500692    416.09     53400     55400     43.66    250.00      4.68     60.47      3.00     13.80     13.48
03/06 08:00      0.00    459.44    501554    416.09     58341     55400     45.43    248.90      7.80     53.14    129.00     13.81     13.36
03/06 09:00      0.00    459.46    502416    415.31     51809     45400     47.95    243.00      9.76     40.80    174.00     13.80     13.36
03/06 10:00      0.00    459.53    505433    415.26     67180     43600     53.22    251.90     12.40     25.28    579.00     13.81     13.36
03/06 11:00      0.00    459.49    503709    415.21     63777     43600     55.54    264.90     15.82     21.01    769.00     13.83     13.36
03/06 12:00      0.00    459.62    509312    415.19     71611     43600     57.18    257.80     18.30     17.53    882.00     13.81     13.48
03/06 13:00      0.00    459.63    509743    415.16     63117     43600     58.17    265.20     20.57     18.57    927.00     13.81     13.36
03/06 14:00      0.00    459.73    514053    415.10     73398     42850     58.39    266.20     22.94     19.67    896.00     13.81     13.36
03/06 15:00      0.00    459.72    513622    415.12     57602     42850     59.49    263.00     21.74     16.73    782.00     13.82     13.36
03/06 16:00      0.00    459.78    516208    415.12     49108     42850     58.82    265.80     24.61     16.49    584.00     13.82     13.42
03/06 17:00      0.00    459.76    515346    415.14     40764     42850     57.72    273.30     23.46     15.88    341.00     13.83     13.36
03/06 18:00      0.00    459.69    512329    415.15     34506     42850     55.63    273.20     23.64     16.91    114.00     13.81     13.48
03/06 19:00      0.00    459.55    506295    415.19     20947     42850     49.82    299.10     18.33     31.33      5.00     13.81     13.36
03/06 20:00      0.00    459.59    508019    415.21     24076     42850     46.51    303.00     17.77     35.36      0.00     13.81     13.36
03/06 21:00      0.00    459.57    507157    415.20     28248     42850     42.57    303.30     18.92     41.10      0.00     13.83     13.36
03/06 22:00      0.00    459.58    507588    415.22     27205     42850     41.25    298.10     14.03     43.18      0.00     13.81     13.48
03/06 23:00      0.00    459.55    506295    415.23     30334     42850     39.92    290.90     13.08     44.95      0.00     13.80     13.36